Carlisle, KY (40311)

20:23 EDT le 20 août 2014 (GMT -0400)
Ridge Road Jet Center | Change Station
CLOSE
Current Station
Stations météorologiques personnelles
Location: Owingsville, KY
Altitude: 899 ft
Stations météo à proximité

Alt. 899 ft 38.14 °N, 83.78 °W | Updated 8 minutes ago

Clear
Ciel dégagé
71.8 ° F
Paraît 71.8 ° F
N
4.2
Vent Variable Vent de SSE

Aujourd'hui
Haut(e) -- | Bas -- ° F
--% Risque de précip.
Hier
Haut(e) -- | Bas -- ° F
Precip. -- pouce
6:55 AM 8:23 PM
Lune descendante, 18% visible
Pression 30.05 pouce
Visibilité 10.0 Miles terrestres
Nuages Ciel dégagé
Point de rosée 69 ° F
Humidité 92%
Précipitations 0.15 pouce
Profondeur de la couche neigeuse Non disponible.
UV 0 sur 12
Pollen 9.50 sur 12
Qualité de l'air Non disponible.
Flu Activity Non disponible.
METAR KIOB 210015Z AUTO 24005KT 10SM CLR 21/21 A3005 RMK AO2

More Conditions Fewer Conditions

Pression 30.05 pouce
Visibilité 10.0 Miles terrestres
Nuages Ciel dégagé
Point de rosée 69 ° F
Humidité 92%
Précipitations 0.15 pouce
Profondeur de la couche neigeuse Non disponible.
UV 0 sur 12
Pollen 9.50 sur 12
Qualité de l'air Non disponible.
Flu Activity Non disponible.
METAR KIOB 210015Z AUTO 24005KT 10SM CLR 21/21 A3005 RMK AO2

More Conditions Fewer Conditions

10-Day Weather Forecast

Almanac

Astronomie

Aug. 20, 2014 Lever Coucher
Temps réel 06:55 EDT 20:23 EDT
Crépuscule civil 06:27 EDT 20:50 EDT
Crépuscule nautique 05:53 EDT 21:24 EDT
Crépuscule astronomique 05:18 EDT 21:59 EDT
Lune 02:35 EDT (8/20) 17:06 EDT (8/20)
Durée de lumière visible 14h 23m
Longueur du jour
13h 28m
Tomorrow will be 2m 16s shorter.
Lune descendante, 18% of the Moon is Illuminated
Aujourd'hui
Lune descendante
août 25
Nouveau
Sep 2
Premier quartier
Sep 8
Pleine lune
Sep 15
Dernier quartier

Extrêmes aujourd'hui

State Highs State Lows

Community

WunderPhotos

Upload Photos

1,745,807 Photos téléchargées !

WunderBlogs® & News

Nearby

Épaisseur de neige

Station Depth Altitude
Pas de nouvelles chutes de neige

Activité sismique

Ville Distance Mag. Time & Date
No recent earthquake activity has been reported nearby.
Minimum magnitude displayed is 2.5.

Températures des eaux côtières

Lieu Température
Aucun rapport de station

Stations météo à proximité